Meridian, Texas
Current Conditions -  °F | °C
As of 9:55 PM on Thursday 18 Dec 2014 (Local Time) from KCPT Reporting Station
Overcast Overcast  
Wind Chill: 46°   Ceiling: 1100
Heat Index: 46°   Visibility: 10mi
Dew Point: 46°   Wind: 3mph
Humidity: 100%   Direction: 330°NNW
Pressure: 30.19"   Gusts: NA
Location:  31.92°N, 97.66°W
Report Text: KCPT 190355Z AUTO 33003KT 10SM OVC011 08/08 A3019 RMK AO2
Loading
Personal Weather Stations






























Interactive Weather Map New forecast layout! Learn more

10-Day Weather Forecast

Advertisements
Track Severe Weather on mobile